Farm — LBHF — position and weather

sailwx.info

Track history (hours):
 
Tides and Currents Weather Stations Pressure Air Temp Water Temp Dewpoint Dewpoint Depression Visibility Wind Speed Wind Dir Waves Ship Positions

Farm

Last reported at 2014-Nov-07 15:25 UTC. Time now 2014-Nov-26 02:59 UTC.
Position N 63°40' E 009°29'.
Warning: this ship's position is 18 days out of date.

Length 46 m.

Type: Law enforcement. MMSI: 257069200.

Date/timePositionNaut miles runAvg speedWind from/ knotsBaromVisibWave heightAir tempDewpointWater temp
2014-Nov-07 15:25N 63°40' E 009°29'226 8.0
2014-Nov-06 11:09N 67°00' E 013°39'810.0
2014-Nov-06 10:20N 67°05' E 013°55'8 9.5
2014-Nov-06 09:32N 67°12' E 014°05'4 3.9
2014-Nov-06 08:33N 67°15' E 014°09'1 0.8
2014-Nov-06 07:33N 67°15' E 014°11'8 8.3
2014-Nov-06 06:33N 67°21' E 014°23'10 9.5
2014-Nov-06 05:33N 67°31' E 014°25'  
2014-Nov-03 13:33N 69°38' E 018°57'1 0.8
2014-Nov-03 12:31N 69°39' E 018°58'0 0.0
2014-Nov-03 11:31N 69°39' E 018°58'0 0.0
2014-Nov-03 10:31N 69°39' E 018°58'0 0.0
2014-Nov-03 09:31N 69°39' E 018°58'0 0.0
2014-Nov-03 08:33N 69°39' E 018°58'4 1.9
2014-Nov-03 06:33N 69°42' E 019°04'2 0.7
2014-Nov-03 03:24N 69°44' E 019°02'0 0.0
2014-Nov-03 02:23N 69°44' E 019°02'0 0.2
2014-Nov-03 00:25N 69°44' E 019°02'0 0.1
2014-Nov-02 23:29N 69°44' E 019°01'0 0.4
2014-Nov-02 22:32N 69°43' E 019°02'0 0.1
2014-Nov-02 21:27N 69°43' E 019°02'0 0.3
2014-Nov-02 20:28N 69°44' E 019°02'0 0.5
2014-Nov-02 19:32N 69°44' E 019°02'4 1.2
2014-Nov-02 16:16N 69°41' E 018°54'3 4.3
2014-Nov-02 15:33N 69°38' E 018°53'2 2.4
2014-Nov-02 14:33N 69°41' E 018°51'0 0.2
2014-Nov-02 13:29N 69°40' E 018°51'5 3.9
2014-Nov-02 12:10N 69°44' E 019°02'1 1.5
2014-Nov-02 11:32N 69°45' E 019°03'  
Track history (hours):
 
Tides and Currents Weather Stations Pressure Air Temp Water Temp Dewpoint Dewpoint Depression Visibility Wind Speed Wind Dir Waves Ship Positions

Farm

Last reported at 2014-Nov-07 15:25 UTC. Time now 2014-Nov-26 02:59 UTC.
Position N 63°40' E 009°29'.
Warning: this ship's position is 18 days out of date.

Length 46 m.

Type: Law enforcement. MMSI: 257069200.

Date/timePositionNaut miles runAvg speedWind from/ knotsBaromVisibWave heightAir tempDewpointWater temp
2014-Nov-07 15:25N 63°40' E 009°29'226 8.0
2014-Nov-06 11:09N 67°00' E 013°39'810.0
2014-Nov-06 10:20N 67°05' E 013°55'8 9.5
2014-Nov-06 09:32N 67°12' E 014°05'4 3.9
2014-Nov-06 08:33N 67°15' E 014°09'1 0.8
2014-Nov-06 07:33N 67°15' E 014°11'8 8.3
2014-Nov-06 06:33N 67°21' E 014°23'10 9.5
2014-Nov-06 05:33N 67°31' E 014°25'  
2014-Nov-03 13:33N 69°38' E 018°57'1 0.8
2014-Nov-03 12:31N 69°39' E 018°58'0 0.0
2014-Nov-03 11:31N 69°39' E 018°58'0 0.0
2014-Nov-03 10:31N 69°39' E 018°58'0 0.0
2014-Nov-03 09:31N 69°39' E 018°58'0 0.0
2014-Nov-03 08:33N 69°39' E 018°58'4 1.9
2014-Nov-03 06:33N 69°42' E 019°04'2 0.7
2014-Nov-03 03:24N 69°44' E 019°02'0 0.0
2014-Nov-03 02:23N 69°44' E 019°02'0 0.2
2014-Nov-03 00:25N 69°44' E 019°02'0 0.1
2014-Nov-02 23:29N 69°44' E 019°01'0 0.4
2014-Nov-02 22:32N 69°43' E 019°02'0 0.1
2014-Nov-02 21:27N 69°43' E 019°02'0 0.3
2014-Nov-02 20:28N 69°44' E 019°02'0 0.5
2014-Nov-02 19:32N 69°44' E 019°02'4 1.2
2014-Nov-02 16:16N 69°41' E 018°54'3 4.3
2014-Nov-02 15:33N 69°38' E 018°53'2 2.4
2014-Nov-02 14:33N 69°41' E 018°51'0 0.2
2014-Nov-02 13:29N 69°40' E 018°51'5 3.9
2014-Nov-02 12:10N 69°44' E 019°02'1 1.5
2014-Nov-02 11:32N 69°45' E 019°03'  

Dump ship's entire track history